sensor_id;sensor_type;location;lat;lon;timestamp;P1;durP1;ratioP1;P2;durP2;ratioP2
11386;SDS011;5748;53.102;8.456;2023-11-21T00:02:26;4.67;;;2.93;;
11386;SDS011;5748;53.102;8.456;2023-11-21T00:04:53;3.13;;;2.77;;
11386;SDS011;5748;53.102;8.456;2023-11-21T00:07:20;3.87;;;3.00;;
11386;SDS011;5748;53.102;8.456;2023-11-21T00:09:47;4.00;;;3.03;;
11386;SDS011;5748;53.102;8.456;2023-11-21T00:12:14;3.07;;;2.73;;
11386;SDS011;5748;53.102;8.456;2023-11-21T00:14:41;3.63;;;3.03;;
11386;SDS011;5748;53.102;8.456;2023-11-21T00:17:08;4.17;;;2.83;;
11386;SDS011;5748;53.102;8.456;2023-11-21T00:19:37;3.63;;;2.87;;
11386;SDS011;5748;53.102;8.456;2023-11-21T00:22:03;4.57;;;2.90;;
11386;SDS011;5748;53.102;8.456;2023-11-21T00:24:31;3.23;;;2.93;;
11386;SDS011;5748;53.102;8.456;2023-11-21T00:26:58;3.60;;;2.90;;
11386;SDS011;5748;53.102;8.456;2023-11-21T00:29:24;3.30;;;2.80;;
11386;SDS011;5748;53.102;8.456;2023-11-21T00:31:51;2.77;;;2.53;;
11386;SDS011;5748;53.102;8.456;2023-11-21T00:34:18;2.97;;;2.63;;
11386;SDS011;5748;53.102;8.456;2023-11-21T00:36:46;2.73;;;2.53;;
11386;SDS011;5748;53.102;8.456;2023-11-21T00:39:13;3.03;;;2.73;;
11386;SDS011;5748;53.102;8.456;2023-11-21T00:41:40;4.53;;;3.27;;
11386;SDS011;5748;53.102;8.456;2023-11-21T00:44:09;4.20;;;3.03;;
11386;SDS011;5748;53.102;8.456;2023-11-21T00:46:36;4.00;;;3.00;;
11386;SDS011;5748;53.102;8.456;2023-11-21T00:49:03;3.77;;;3.00;;
11386;SDS011;5748;53.102;8.456;2023-11-21T00:51:30;3.77;;;2.90;;
11386;SDS011;5748;53.102;8.456;2023-11-21T00:53:59;3.00;;;2.70;;
11386;SDS011;5748;53.102;8.456;2023-11-21T00:56:26;3.10;;;2.80;;
11386;SDS011;5748;53.102;8.456;2023-11-21T00:58:53;4.03;;;2.77;;
11386;SDS011;5748;53.102;8.456;2023-11-21T01:01:20;3.60;;;2.90;;
11386;SDS011;5748;53.102;8.456;2023-11-21T01:03:48;3.73;;;2.80;;
11386;SDS011;5748;53.102;8.456;2023-11-21T01:06:15;4.10;;;3.13;;
11386;SDS011;5748;53.102;8.456;2023-11-21T01:08:43;4.33;;;3.23;;
11386;SDS011;5748;53.102;8.456;2023-11-21T01:11:12;3.67;;;2.73;;
11386;SDS011;5748;53.102;8.456;2023-11-21T01:13:39;3.20;;;2.90;;
11386;SDS011;5748;53.102;8.456;2023-11-21T01:16:07;3.70;;;3.30;;
11386;SDS011;5748;53.102;8.456;2023-11-21T01:18:34;3.50;;;3.00;;
11386;SDS011;5748;53.102;8.456;2023-11-21T01:21:01;3.47;;;2.97;;
11386;SDS011;5748;53.102;8.456;2023-11-21T01:23:29;3.47;;;3.07;;
11386;SDS011;5748;53.102;8.456;2023-11-21T01:25:56;3.20;;;2.90;;
11386;SDS011;5748;53.102;8.456;2023-11-21T01:28:25;3.13;;;2.60;;
11386;SDS011;5748;53.102;8.456;2023-11-21T01:30:52;3.53;;;3.23;;
11386;SDS011;5748;53.102;8.456;2023-11-21T01:33:21;3.57;;;3.00;;
11386;SDS011;5748;53.102;8.456;2023-11-21T01:35:49;3.80;;;3.50;;
11386;SDS011;5748;53.102;8.456;2023-11-21T01:38:19;3.63;;;3.33;;
11386;SDS011;5748;53.102;8.456;2023-11-21T01:40:46;4.13;;;3.50;;
11386;SDS011;5748;53.102;8.456;2023-11-21T01:43:13;3.63;;;3.10;;
11386;SDS011;5748;53.102;8.456;2023-11-21T01:45:41;4.07;;;3.30;;
11386;SDS011;5748;53.102;8.456;2023-11-21T01:48:10;3.27;;;2.97;;
11386;SDS011;5748;53.102;8.456;2023-11-21T01:50:38;4.77;;;3.10;;
11386;SDS011;5748;53.102;8.456;2023-11-21T01:53:05;3.43;;;2.97;;
11386;SDS011;5748;53.102;8.456;2023-11-21T01:55:32;3.40;;;2.87;;
11386;SDS011;5748;53.102;8.456;2023-11-21T01:58:00;4.90;;;3.33;;
11386;SDS011;5748;53.102;8.456;2023-11-21T02:00:27;4.87;;;3.27;;
11386;SDS011;5748;53.102;8.456;2023-11-21T02:02:56;3.33;;;3.03;;
11386;SDS011;5748;53.102;8.456;2023-11-21T02:05:23;3.40;;;3.07;;
11386;SDS011;5748;53.102;8.456;2023-11-21T02:07:51;3.47;;;3.17;;
11386;SDS011;5748;53.102;8.456;2023-11-21T02:10:18;3.20;;;2.90;;
11386;SDS011;5748;53.102;8.456;2023-11-21T02:12:47;3.37;;;3.07;;
11386;SDS011;5748;53.102;8.456;2023-11-21T02:15:15;3.23;;;2.93;;
11386;SDS011;5748;53.102;8.456;2023-11-21T02:17:45;3.73;;;3.00;;
11386;SDS011;5748;53.102;8.456;2023-11-21T02:20:17;3.27;;;2.97;;
11386;SDS011;5748;53.102;8.456;2023-11-21T02:22:49;3.43;;;3.10;;
11386;SDS011;5748;53.102;8.456;2023-11-21T02:25:18;3.47;;;3.17;;
11386;SDS011;5748;53.102;8.456;2023-11-21T02:27:44;4.00;;;3.23;;
11386;SDS011;5748;53.102;8.456;2023-11-21T02:30:13;3.30;;;2.80;;
11386;SDS011;5748;53.102;8.456;2023-11-21T02:32:41;5.03;;;3.37;;
11386;SDS011;5748;53.102;8.456;2023-11-21T02:35:08;3.10;;;2.80;;
11386;SDS011;5748;53.102;8.456;2023-11-21T02:37:37;3.57;;;3.10;;
11386;SDS011;5748;53.102;8.456;2023-11-21T02:40:08;2.80;;;2.43;;
11386;SDS011;5748;53.102;8.456;2023-11-21T02:42:37;2.73;;;2.53;;
11386;SDS011;5748;53.102;8.456;2023-11-21T02:45:05;3.33;;;2.70;;
11386;SDS011;5748;53.102;8.456;2023-11-21T02:47:34;3.70;;;2.60;;
11386;SDS011;5748;53.102;8.456;2023-11-21T02:50:01;2.80;;;2.40;;
11386;SDS011;5748;53.102;8.456;2023-11-21T02:52:28;3.50;;;2.63;;
11386;SDS011;5748;53.102;8.456;2023-11-21T02:54:58;2.97;;;2.67;;
11386;SDS011;5748;53.102;8.456;2023-11-21T02:57:26;2.90;;;2.57;;
11386;SDS011;5748;53.102;8.456;2023-11-21T02:59:53;3.10;;;2.80;;
11386;SDS011;5748;53.102;8.456;2023-11-21T03:02:20;2.53;;;2.33;;
11386;SDS011;5748;53.102;8.456;2023-11-21T03:04:47;2.73;;;2.37;;
11386;SDS011;5748;53.102;8.456;2023-11-21T03:07:14;2.90;;;2.60;;
11386;SDS011;5748;53.102;8.456;2023-11-21T03:09:41;2.50;;;2.30;;
11386;SDS011;5748;53.102;8.456;2023-11-21T03:12:09;2.83;;;2.23;;
11386;SDS011;5748;53.102;8.456;2023-11-21T03:14:38;3.33;;;2.80;;
11386;SDS011;5748;53.102;8.456;2023-11-21T03:17:05;2.80;;;2.47;;
11386;SDS011;5748;53.102;8.456;2023-11-21T03:19:32;2.73;;;2.33;;
11386;SDS011;5748;53.102;8.456;2023-11-21T03:21:59;2.87;;;2.53;;
11386;SDS011;5748;53.102;8.456;2023-11-21T03:24:26;3.13;;;2.67;;
11386;SDS011;5748;53.102;8.456;2023-11-21T03:26:53;3.10;;;2.80;;
11386;SDS011;5748;53.102;8.456;2023-11-21T03:29:20;2.87;;;2.57;;
11386;SDS011;5748;53.102;8.456;2023-11-21T03:31:48;4.20;;;2.90;;
11386;SDS011;5748;53.102;8.456;2023-11-21T03:34:15;3.40;;;2.87;;
11386;SDS011;5748;53.102;8.456;2023-11-21T03:36:51;3.10;;;2.80;;
11386;SDS011;5748;53.102;8.456;2023-11-21T03:39:18;3.03;;;2.67;;
11386;SDS011;5748;53.102;8.456;2023-11-21T03:41:46;3.83;;;3.10;;
11386;SDS011;5748;53.102;8.456;2023-11-21T03:44:13;3.17;;;2.87;;
11386;SDS011;5748;53.102;8.456;2023-11-21T03:46:40;3.50;;;3.17;;
11386;SDS011;5748;53.102;8.456;2023-11-21T03:49:08;3.40;;;3.10;;
11386;SDS011;5748;53.102;8.456;2023-11-21T03:51:35;3.90;;;3.43;;
11386;SDS011;5748;53.102;8.456;2023-11-21T03:54:02;3.90;;;3.60;;
11386;SDS011;5748;53.102;8.456;2023-11-21T03:56:30;3.37;;;3.07;;
11386;SDS011;5748;53.102;8.456;2023-11-21T03:58:57;3.47;;;3.17;;
11386;SDS011;5748;53.102;8.456;2023-11-21T04:01:24;4.30;;;3.90;;
11386;SDS011;5748;53.102;8.456;2023-11-21T04:03:51;4.93;;;3.40;;
11386;SDS011;5748;53.102;8.456;2023-11-21T04:06:19;4.13;;;3.73;;
11386;SDS011;5748;53.102;8.456;2023-11-21T04:08:46;4.13;;;3.33;;
11386;SDS011;5748;53.102;8.456;2023-11-21T04:11:13;4.50;;;4.10;;
11386;SDS011;5748;53.102;8.456;2023-11-21T04:13:40;4.07;;;3.67;;
11386;SDS011;5748;53.102;8.456;2023-11-21T04:16:08;4.47;;;4.00;;
11386;SDS011;5748;53.102;8.456;2023-11-21T04:18:36;4.33;;;3.60;;
11386;SDS011;5748;53.102;8.456;2023-11-21T04:21:03;3.90;;;3.53;;
11386;SDS011;5748;53.102;8.456;2023-11-21T04:23:34;4.17;;;3.53;;
11386;SDS011;5748;53.102;8.456;2023-11-21T04:26:01;4.23;;;3.83;;
11386;SDS011;5748;53.102;8.456;2023-11-21T04:28:29;3.77;;;3.40;;
11386;SDS011;5748;53.102;8.456;2023-11-21T04:30:56;4.30;;;3.80;;
11386;SDS011;5748;53.102;8.456;2023-11-21T04:33:23;5.03;;;4.23;;
11386;SDS011;5748;53.102;8.456;2023-11-21T04:35:50;3.90;;;3.50;;
11386;SDS011;5748;53.102;8.456;2023-11-21T04:38:17;4.30;;;3.90;;
11386;SDS011;5748;53.102;8.456;2023-11-21T04:40:46;4.40;;;3.83;;
11386;SDS011;5748;53.102;8.456;2023-11-21T04:43:12;4.37;;;3.97;;
11386;SDS011;5748;53.102;8.456;2023-11-21T04:45:39;4.90;;;4.20;;
11386;SDS011;5748;53.102;8.456;2023-11-21T04:48:06;4.23;;;3.83;;
11386;SDS011;5748;53.102;8.456;2023-11-21T04:50:34;4.00;;;3.60;;
11386;SDS011;5748;53.102;8.456;2023-11-21T04:53:01;4.97;;;4.10;;
11386;SDS011;5748;53.102;8.456;2023-11-21T04:55:28;4.90;;;4.13;;
11386;SDS011;5748;53.102;8.456;2023-11-21T04:57:56;5.20;;;4.20;;
11386;SDS011;5748;53.102;8.456;2023-11-21T05:00:23;5.00;;;4.43;;
11386;SDS011;5748;53.102;8.456;2023-11-21T05:02:50;4.57;;;4.00;;
11386;SDS011;5748;53.102;8.456;2023-11-21T05:05:17;4.93;;;4.43;;
11386;SDS011;5748;53.102;8.456;2023-11-21T05:07:44;5.30;;;4.57;;
11386;SDS011;5748;53.102;8.456;2023-11-21T05:10:11;5.13;;;4.63;;
11386;SDS011;5748;53.102;8.456;2023-11-21T05:12:40;4.93;;;4.43;;
11386;SDS011;5748;53.102;8.456;2023-11-21T05:15:09;4.90;;;4.40;;
11386;SDS011;5748;53.102;8.456;2023-11-21T05:17:40;4.97;;;4.50;;
11386;SDS011;5748;53.102;8.456;2023-11-21T05:20:08;4.80;;;4.40;;
11386;SDS011;5748;53.102;8.456;2023-11-21T05:22:36;4.73;;;4.30;;
11386;SDS011;5748;53.102;8.456;2023-11-21T05:25:03;4.90;;;4.40;;
11386;SDS011;5748;53.102;8.456;2023-11-21T05:27:32;4.90;;;4.50;;
11386;SDS011;5748;53.102;8.456;2023-11-21T05:30:00;4.97;;;4.57;;
11386;SDS011;5748;53.102;8.456;2023-11-21T05:32:31;4.87;;;4.37;;
11386;SDS011;5748;53.102;8.456;2023-11-21T05:34:58;4.27;;;3.90;;
11386;SDS011;5748;53.102;8.456;2023-11-21T05:37:25;5.07;;;4.57;;
11386;SDS011;5748;53.102;8.456;2023-11-21T05:39:53;4.77;;;4.23;;
11386;SDS011;5748;53.102;8.456;2023-11-21T05:42:21;4.90;;;4.43;;
11386;SDS011;5748;53.102;8.456;2023-11-21T05:44:48;5.33;;;4.83;;
11386;SDS011;5748;53.102;8.456;2023-11-21T05:47:15;4.93;;;4.53;;
11386;SDS011;5748;53.102;8.456;2023-11-21T05:49:44;4.67;;;4.27;;
11386;SDS011;5748;53.102;8.456;2023-11-21T05:52:15;4.67;;;4.27;;
11386;SDS011;5748;53.102;8.456;2023-11-21T05:54:42;4.53;;;4.13;;
11386;SDS011;5748;53.102;8.456;2023-11-21T05:57:09;4.50;;;4.10;;
11386;SDS011;5748;53.102;8.456;2023-11-21T05:59:36;4.13;;;3.83;;
11386;SDS011;5748;53.102;8.456;2023-11-21T06:02:03;4.37;;;3.97;;
11386;SDS011;5748;53.102;8.456;2023-11-21T06:04:30;4.50;;;3.90;;
11386;SDS011;5748;53.102;8.456;2023-11-21T06:06:58;3.93;;;3.53;;
11386;SDS011;5748;53.102;8.456;2023-11-21T06:09:26;4.50;;;3.53;;
11386;SDS011;5748;53.102;8.456;2023-11-21T06:11:53;3.60;;;3.30;;
11386;SDS011;5748;53.102;8.456;2023-11-21T06:14:20;3.43;;;3.13;;
11386;SDS011;5748;53.102;8.456;2023-11-21T06:16:47;3.93;;;3.60;;
11386;SDS011;5748;53.102;8.456;2023-11-21T06:19:16;3.60;;;3.07;;
11386;SDS011;5748;53.102;8.456;2023-11-21T06:21:45;3.03;;;2.73;;
11386;SDS011;5748;53.102;8.456;2023-11-21T06:24:14;3.00;;;2.70;;
11386;SDS011;5748;53.102;8.456;2023-11-21T06:26:42;2.60;;;2.40;;
11386;SDS011;5748;53.102;8.456;2023-11-21T06:29:09;2.70;;;2.50;;
11386;SDS011;5748;53.102;8.456;2023-11-21T06:31:36;2.80;;;2.60;;
11386;SDS011;5748;53.102;8.456;2023-11-21T06:34:03;3.00;;;2.70;;
11386;SDS011;5748;53.102;8.456;2023-11-21T06:36:30;2.73;;;2.53;;
11386;SDS011;5748;53.102;8.456;2023-11-21T06:38:57;2.60;;;2.40;;
11386;SDS011;5748;53.102;8.456;2023-11-21T06:41:25;2.70;;;2.50;;
11386;SDS011;5748;53.102;8.456;2023-11-21T06:43:52;2.67;;;2.47;;
11386;SDS011;5748;53.102;8.456;2023-11-21T06:46:19;2.50;;;2.30;;
11386;SDS011;5748;53.102;8.456;2023-11-21T06:48:46;2.70;;;2.50;;
11386;SDS011;5748;53.102;8.456;2023-11-21T06:51:14;2.30;;;2.10;;
11386;SDS011;5748;53.102;8.456;2023-11-21T06:53:41;2.40;;;2.20;;
11386;SDS011;5748;53.102;8.456;2023-11-21T06:56:15;2.40;;;2.20;;
11386;SDS011;5748;53.102;8.456;2023-11-21T06:58:44;2.30;;;2.10;;
11386;SDS011;5748;53.102;8.456;2023-11-21T07:01:12;2.50;;;2.30;;
11386;SDS011;5748;53.102;8.456;2023-11-21T07:03:39;2.43;;;2.23;;
11386;SDS011;5748;53.102;8.456;2023-11-21T07:06:07;2.30;;;2.10;;
11386;SDS011;5748;53.102;8.456;2023-11-21T07:08:34;2.50;;;2.30;;
11386;SDS011;5748;53.102;8.456;2023-11-21T07:11:02;2.23;;;2.03;;
11386;SDS011;5748;53.102;8.456;2023-11-21T07:13:29;2.40;;;2.20;;
11386;SDS011;5748;53.102;8.456;2023-11-21T07:15:57;2.53;;;2.33;;
11386;SDS011;5748;53.102;8.456;2023-11-21T07:18:25;2.50;;;2.30;;
11386;SDS011;5748;53.102;8.456;2023-11-21T07:20:52;2.80;;;2.60;;
11386;SDS011;5748;53.102;8.456;2023-11-21T07:23:19;2.53;;;2.33;;
11386;SDS011;5748;53.102;8.456;2023-11-21T07:25:47;2.73;;;2.53;;
11386;SDS011;5748;53.102;8.456;2023-11-21T07:28:14;2.40;;;2.20;;
11386;SDS011;5748;53.102;8.456;2023-11-21T07:30:41;2.53;;;2.33;;
11386;SDS011;5748;53.102;8.456;2023-11-21T07:33:10;2.50;;;2.30;;
11386;SDS011;5748;53.102;8.456;2023-11-21T07:35:37;2.80;;;2.60;;
11386;SDS011;5748;53.102;8.456;2023-11-21T07:38:04;2.73;;;2.53;;
11386;SDS011;5748;53.102;8.456;2023-11-21T07:40:31;2.57;;;2.37;;
11386;SDS011;5748;53.102;8.456;2023-11-21T07:42:57;3.00;;;2.80;;
11386;SDS011;5748;53.102;8.456;2023-11-21T07:45:25;2.60;;;2.40;;
11386;SDS011;5748;53.102;8.456;2023-11-21T07:47:52;2.80;;;2.60;;
11386;SDS011;5748;53.102;8.456;2023-11-21T07:50:21;2.87;;;2.67;;
11386;SDS011;5748;53.102;8.456;2023-11-21T07:52:48;3.07;;;2.73;;
11386;SDS011;5748;53.102;8.456;2023-11-21T07:55:15;2.47;;;2.27;;
11386;SDS011;5748;53.102;8.456;2023-11-21T07:57:42;2.70;;;2.50;;
11386;SDS011;5748;53.102;8.456;2023-11-21T08:00:10;3.07;;;2.60;;
11386;SDS011;5748;53.102;8.456;2023-11-21T08:02:40;2.83;;;2.63;;
11386;SDS011;5748;53.102;8.456;2023-11-21T08:05:08;2.47;;;2.27;;
11386;SDS011;5748;53.102;8.456;2023-11-21T08:07:37;2.70;;;2.50;;
11386;SDS011;5748;53.102;8.456;2023-11-21T08:10:04;2.80;;;2.60;;
11386;SDS011;5748;53.102;8.456;2023-11-21T08:12:35;2.80;;;2.60;;
11386;SDS011;5748;53.102;8.456;2023-11-21T08:15:02;3.90;;;3.17;;
11386;SDS011;5748;53.102;8.456;2023-11-21T08:17:31;2.97;;;2.77;;
11386;SDS011;5748;53.102;8.456;2023-11-21T08:19:58;2.90;;;2.70;;
11386;SDS011;5748;53.102;8.456;2023-11-21T08:22:25;2.90;;;2.70;;
11386;SDS011;5748;53.102;8.456;2023-11-21T08:24:53;3.17;;;2.87;;
11386;SDS011;5748;53.102;8.456;2023-11-21T08:27:20;2.77;;;2.57;;
11386;SDS011;5748;53.102;8.456;2023-11-21T08:29:47;2.93;;;2.73;;
11386;SDS011;5748;53.102;8.456;2023-11-21T08:32:15;3.23;;;2.93;;
11386;SDS011;5748;53.102;8.456;2023-11-21T08:34:42;2.83;;;2.60;;
11386;SDS011;5748;53.102;8.456;2023-11-21T08:37:10;3.13;;;2.70;;
11386;SDS011;5748;53.102;8.456;2023-11-21T08:39:37;3.30;;;2.90;;
11386;SDS011;5748;53.102;8.456;2023-11-21T08:42:05;2.77;;;2.57;;
11386;SDS011;5748;53.102;8.456;2023-11-21T08:44:33;2.93;;;2.73;;
11386;SDS011;5748;53.102;8.456;2023-11-21T08:47:00;2.77;;;2.57;;
11386;SDS011;5748;53.102;8.456;2023-11-21T08:49:27;2.60;;;2.40;;
11386;SDS011;5748;53.102;8.456;2023-11-21T08:51:54;2.93;;;2.63;;
11386;SDS011;5748;53.102;8.456;2023-11-21T08:54:22;2.70;;;2.50;;
11386;SDS011;5748;53.102;8.456;2023-11-21T08:56:50;2.83;;;2.60;;
11386;SDS011;5748;53.102;8.456;2023-11-21T08:59:19;2.80;;;2.60;;
11386;SDS011;5748;53.102;8.456;2023-11-21T09:01:46;3.17;;;2.73;;
11386;SDS011;5748;53.102;8.456;2023-11-21T09:04:13;4.17;;;2.90;;
11386;SDS011;5748;53.102;8.456;2023-11-21T09:06:40;2.80;;;2.60;;
11386;SDS011;5748;53.102;8.456;2023-11-21T09:09:07;2.97;;;2.73;;
11386;SDS011;5748;53.102;8.456;2023-11-21T09:11:35;3.17;;;2.87;;
11386;SDS011;5748;53.102;8.456;2023-11-21T09:14:02;3.20;;;2.90;;
11386;SDS011;5748;53.102;8.456;2023-11-21T09:16:30;2.90;;;2.60;;
11386;SDS011;5748;53.102;8.456;2023-11-21T09:18:58;3.13;;;2.83;;
11386;SDS011;5748;53.102;8.456;2023-11-21T09:21:25;2.90;;;2.70;;
11386;SDS011;5748;53.102;8.456;2023-11-21T09:23:52;3.20;;;2.90;;
11386;SDS011;5748;53.102;8.456;2023-11-21T09:26:19;3.13;;;2.83;;
11386;SDS011;5748;53.102;8.456;2023-11-21T09:28:46;3.17;;;2.87;;
11386;SDS011;5748;53.102;8.456;2023-11-21T09:31:13;3.17;;;2.73;;
11386;SDS011;5748;53.102;8.456;2023-11-21T09:33:42;2.77;;;2.57;;
11386;SDS011;5748;53.102;8.456;2023-11-21T09:36:11;2.70;;;2.50;;
11386;SDS011;5748;53.102;8.456;2023-11-21T09:38:39;2.77;;;2.57;;
11386;SDS011;5748;53.102;8.456;2023-11-21T09:41:08;2.73;;;2.53;;
11386;SDS011;5748;53.102;8.456;2023-11-21T09:43:44;2.63;;;2.43;;
11386;SDS011;5748;53.102;8.456;2023-11-21T09:46:13;2.87;;;2.67;;
11386;SDS011;5748;53.102;8.456;2023-11-21T09:48:47;3.00;;;2.70;;
11386;SDS011;5748;53.102;8.456;2023-11-21T09:51:18;3.10;;;2.80;;
11386;SDS011;5748;53.102;8.456;2023-11-21T09:53:48;2.60;;;2.40;;
11386;SDS011;5748;53.102;8.456;2023-11-21T09:56:18;2.80;;;2.60;;
11386;SDS011;5748;53.102;8.456;2023-11-21T09:58:50;2.70;;;2.50;;
11386;SDS011;5748;53.102;8.456;2023-11-21T10:01:19;2.47;;;2.27;;
11386;SDS011;5748;53.102;8.456;2023-11-21T10:03:49;3.00;;;2.63;;
11386;SDS011;5748;53.102;8.456;2023-11-21T10:06:16;2.53;;;2.33;;
11386;SDS011;5748;53.102;8.456;2023-11-21T10:08:45;2.47;;;2.27;;
11386;SDS011;5748;53.102;8.456;2023-11-21T10:11:12;2.60;;;2.40;;
11386;SDS011;5748;53.102;8.456;2023-11-21T10:13:41;2.53;;;2.33;;
11386;SDS011;5748;53.102;8.456;2023-11-21T10:16:12;2.70;;;2.50;;
11386;SDS011;5748;53.102;8.456;2023-11-21T10:18:42;2.97;;;2.77;;
11386;SDS011;5748;53.102;8.456;2023-11-21T10:21:12;2.67;;;2.47;;
11386;SDS011;5748;53.102;8.456;2023-11-21T10:23:39;2.87;;;2.67;;
11386;SDS011;5748;53.102;8.456;2023-11-21T10:26:06;3.07;;;2.77;;
11386;SDS011;5748;53.102;8.456;2023-11-21T10:28:41;2.77;;;2.57;;
11386;SDS011;5748;53.102;8.456;2023-11-21T10:31:08;3.00;;;2.70;;
11386;SDS011;5748;53.102;8.456;2023-11-21T10:33:35;2.80;;;2.60;;
11386;SDS011;5748;53.102;8.456;2023-11-21T10:36:02;2.63;;;2.43;;
11386;SDS011;5748;53.102;8.456;2023-11-21T10:38:35;2.60;;;2.40;;
11386;SDS011;5748;53.102;8.456;2023-11-21T10:41:11;2.57;;;2.37;;
11386;SDS011;5748;53.102;8.456;2023-11-21T10:43:40;2.80;;;2.60;;
11386;SDS011;5748;53.102;8.456;2023-11-21T10:46:07;2.77;;;2.47;;
11386;SDS011;5748;53.102;8.456;2023-11-21T10:48:34;2.97;;;2.73;;
11386;SDS011;5748;53.102;8.456;2023-11-21T10:51:06;2.63;;;2.43;;
11386;SDS011;5748;53.102;8.456;2023-11-21T10:53:36;2.70;;;2.50;;
11386;SDS011;5748;53.102;8.456;2023-11-21T10:56:06;2.80;;;2.60;;
11386;SDS011;5748;53.102;8.456;2023-11-21T10:58:39;3.00;;;2.70;;
11386;SDS011;5748;53.102;8.456;2023-11-21T11:01:06;3.10;;;2.90;;
11386;SDS011;5748;53.102;8.456;2023-11-21T11:03:36;2.90;;;2.70;;
11386;SDS011;5748;53.102;8.456;2023-11-21T11:06:05;2.87;;;2.67;;
11386;SDS011;5748;53.102;8.456;2023-11-21T11:08:37;3.23;;;2.80;;
11386;SDS011;5748;53.102;8.456;2023-11-21T11:11:05;2.80;;;2.60;;
11386;SDS011;5748;53.102;8.456;2023-11-21T11:13:32;2.63;;;2.43;;
11386;SDS011;5748;53.102;8.456;2023-11-21T11:15:59;2.87;;;2.67;;
11386;SDS011;5748;53.102;8.456;2023-11-21T11:18:27;2.90;;;2.70;;
11386;SDS011;5748;53.102;8.456;2023-11-21T11:20:55;2.70;;;2.50;;
11386;SDS011;5748;53.102;8.456;2023-11-21T11:23:36;2.67;;;2.47;;
11386;SDS011;5748;53.102;8.456;2023-11-21T11:26:18;2.73;;;2.53;;
11386;SDS011;5748;53.102;8.456;2023-11-21T11:28:57;2.40;;;2.20;;
11386;SDS011;5748;53.102;8.456;2023-11-21T11:31:37;2.30;;;2.10;;
11386;SDS011;5748;53.102;8.456;2023-11-21T11:34:18;2.63;;;2.43;;
11386;SDS011;5748;53.102;8.456;2023-11-21T11:36:54;2.80;;;2.60;;
11386;SDS011;5748;53.102;8.456;2023-11-21T11:39:29;2.67;;;2.47;;
11386;SDS011;5748;53.102;8.456;2023-11-21T11:41:57;2.40;;;2.20;;
11386;SDS011;5748;53.102;8.456;2023-11-21T11:47:19;2.70;;;2.50;;
11386;SDS011;5748;53.102;8.456;2023-11-21T11:49:55;2.80;;;2.60;;
11386;SDS011;5748;53.102;8.456;2023-11-21T11:55:15;2.30;;;2.10;;
11386;SDS011;5748;53.102;8.456;2023-11-21T11:57:44;2.57;;;2.37;;
11386;SDS011;5748;53.102;8.456;2023-11-21T12:00:13;2.90;;;2.70;;
11386;SDS011;5748;53.102;8.456;2023-11-21T12:02:44;2.20;;;2.00;;
11386;SDS011;5748;53.102;8.456;2023-11-21T12:05:13;2.50;;;2.30;;
11386;SDS011;5748;53.102;8.456;2023-11-21T12:07:44;2.20;;;2.00;;
11386;SDS011;5748;53.102;8.456;2023-11-21T12:10:13;2.70;;;2.50;;
11386;SDS011;5748;53.102;8.456;2023-11-21T12:12:45;2.53;;;2.20;;
11386;SDS011;5748;53.102;8.456;2023-11-21T12:15:13;2.40;;;2.20;;
11386;SDS011;5748;53.102;8.456;2023-11-21T12:17:40;2.30;;;2.10;;
11386;SDS011;5748;53.102;8.456;2023-11-21T12:20:09;2.40;;;2.20;;
11386;SDS011;5748;53.102;8.456;2023-11-21T12:22:42;2.10;;;2.00;;
11386;SDS011;5748;53.102;8.456;2023-11-21T12:25:12;2.20;;;2.00;;
11386;SDS011;5748;53.102;8.456;2023-11-21T12:27:43;2.20;;;2.00;;
11386;SDS011;5748;53.102;8.456;2023-11-21T12:30:12;2.27;;;2.07;;
11386;SDS011;5748;53.102;8.456;2023-11-21T12:32:41;2.00;;;1.90;;
11386;SDS011;5748;53.102;8.456;2023-11-21T12:35:09;2.10;;;1.90;;
11386;SDS011;5748;53.102;8.456;2023-11-21T12:37:37;2.23;;;2.03;;
11386;SDS011;5748;53.102;8.456;2023-11-21T12:40:05;2.00;;;1.80;;
11386;SDS011;5748;53.102;8.456;2023-11-21T12:42:38;1.80;;;1.70;;
11386;SDS011;5748;53.102;8.456;2023-11-21T12:45:12;2.07;;;1.87;;
11386;SDS011;5748;53.102;8.456;2023-11-21T12:47:46;2.17;;;1.83;;
11386;SDS011;5748;53.102;8.456;2023-11-21T12:50:15;1.97;;;1.87;;
11386;SDS011;5748;53.102;8.456;2023-11-21T12:52:48;1.70;;;1.60;;
11386;SDS011;5748;53.102;8.456;2023-11-21T12:55:19;2.20;;;2.00;;
11386;SDS011;5748;53.102;8.456;2023-11-21T12:57:49;1.93;;;1.83;;
11386;SDS011;5748;53.102;8.456;2023-11-21T13:00:20;1.90;;;1.80;;
11386;SDS011;5748;53.102;8.456;2023-11-21T13:02:58;1.80;;;1.57;;
11386;SDS011;5748;53.102;8.456;2023-11-21T13:05:26;1.90;;;1.80;;
11386;SDS011;5748;53.102;8.456;2023-11-21T13:07:55;1.70;;;1.60;;
11386;SDS011;5748;53.102;8.456;2023-11-21T13:10:25;1.70;;;1.60;;
11386;SDS011;5748;53.102;8.456;2023-11-21T13:12:57;1.77;;;1.53;;
11386;SDS011;5748;53.102;8.456;2023-11-21T13:15:25;1.63;;;1.53;;
11386;SDS011;5748;53.102;8.456;2023-11-21T13:17:52;1.60;;;1.50;;
11386;SDS011;5748;53.102;8.456;2023-11-21T13:20:21;1.63;;;1.53;;
11386;SDS011;5748;53.102;8.456;2023-11-21T13:22:49;1.70;;;1.60;;
11386;SDS011;5748;53.102;8.456;2023-11-21T13:25:19;1.90;;;1.80;;
11386;SDS011;5748;53.102;8.456;2023-11-21T13:27:47;1.93;;;1.83;;
11386;SDS011;5748;53.102;8.456;2023-11-21T13:30:16;2.10;;;1.90;;
11386;SDS011;5748;53.102;8.456;2023-11-21T13:32:48;1.83;;;1.73;;
11386;SDS011;5748;53.102;8.456;2023-11-21T13:35:16;1.87;;;1.77;;
11386;SDS011;5748;53.102;8.456;2023-11-21T13:37:47;2.17;;;1.80;;
11386;SDS011;5748;53.102;8.456;2023-11-21T13:40:19;1.70;;;1.60;;
11386;SDS011;5748;53.102;8.456;2023-11-21T13:42:50;2.60;;;1.80;;
11386;SDS011;5748;53.102;8.456;2023-11-21T13:45:21;2.20;;;1.80;;
11386;SDS011;5748;53.102;8.456;2023-11-21T13:47:49;1.93;;;1.70;;
11386;SDS011;5748;53.102;8.456;2023-11-21T13:50:22;2.00;;;1.80;;
11386;SDS011;5748;53.102;8.456;2023-11-21T13:52:54;1.73;;;1.63;;
11386;SDS011;5748;53.102;8.456;2023-11-21T13:55:21;1.60;;;1.50;;
11386;SDS011;5748;53.102;8.456;2023-11-21T13:57:50;1.80;;;1.70;;
11386;SDS011;5748;53.102;8.456;2023-11-21T14:00:17;1.87;;;1.63;;
11386;SDS011;5748;53.102;8.456;2023-11-21T14:03:10;1.80;;;1.70;;
11386;SDS011;5748;53.102;8.456;2023-11-21T14:05:45;1.87;;;1.70;;
11386;SDS011;5748;53.102;8.456;2023-11-21T14:08:16;1.70;;;1.60;;
11386;SDS011;5748;53.102;8.456;2023-11-21T14:10:46;2.10;;;1.90;;
11386;SDS011;5748;53.102;8.456;2023-11-21T14:13:16;1.77;;;1.67;;
11386;SDS011;5748;53.102;8.456;2023-11-21T14:15:45;1.80;;;1.70;;
11386;SDS011;5748;53.102;8.456;2023-11-21T14:18:17;2.30;;;2.10;;
11386;SDS011;5748;53.102;8.456;2023-11-21T14:20:52;2.13;;;1.93;;
11386;SDS011;5748;53.102;8.456;2023-11-21T14:23:19;2.47;;;2.03;;
11386;SDS011;5748;53.102;8.456;2023-11-21T14:25:48;2.40;;;2.20;;
11386;SDS011;5748;53.102;8.456;2023-11-21T14:28:15;2.20;;;2.00;;
11386;SDS011;5748;53.102;8.456;2023-11-21T14:30:44;2.30;;;2.10;;
11386;SDS011;5748;53.102;8.456;2023-11-21T14:33:11;2.40;;;2.20;;
11386;SDS011;5748;53.102;8.456;2023-11-21T14:35:40;2.33;;;2.13;;
11386;SDS011;5748;53.102;8.456;2023-11-21T14:38:07;2.27;;;2.07;;
11386;SDS011;5748;53.102;8.456;2023-11-21T14:40:35;1.87;;;1.77;;
11386;SDS011;5748;53.102;8.456;2023-11-21T14:43:02;2.10;;;1.90;;
11386;SDS011;5748;53.102;8.456;2023-11-21T14:45:31;1.77;;;1.67;;
11386;SDS011;5748;53.102;8.456;2023-11-21T14:47:58;1.90;;;1.70;;
11386;SDS011;5748;53.102;8.456;2023-11-21T14:50:31;1.70;;;1.60;;
11386;SDS011;5748;53.102;8.456;2023-11-21T14:53:17;1.67;;;1.57;;
11386;SDS011;5748;53.102;8.456;2023-11-21T14:56:03;1.40;;;1.20;;
11386;SDS011;5748;53.102;8.456;2023-11-21T14:58:32;1.40;;;1.30;;
11386;SDS011;5748;53.102;8.456;2023-11-21T15:00:58;1.60;;;1.50;;
11386;SDS011;5748;53.102;8.456;2023-11-21T15:03:26;1.53;;;1.43;;
11386;SDS011;5748;53.102;8.456;2023-11-21T15:06:08;1.60;;;1.50;;
11386;SDS011;5748;53.102;8.456;2023-11-21T15:08:49;1.30;;;1.20;;
11386;SDS011;5748;53.102;8.456;2023-11-21T15:11:37;1.50;;;1.40;;
11386;SDS011;5748;53.102;8.456;2023-11-21T15:14:04;1.10;;;1.10;;
11386;SDS011;5748;53.102;8.456;2023-11-21T15:16:33;1.40;;;1.30;;